createdAt,value
2023-12-04T00:01:19.298Z,0.60
2023-12-04T00:03:46.910Z,0.60
2023-12-04T00:06:14.269Z,0.70
2023-12-04T00:08:41.837Z,0.60
2023-12-04T00:11:09.276Z,0.70
2023-12-04T00:13:36.641Z,0.63
2023-12-04T00:16:04.142Z,0.70
2023-12-04T00:18:31.456Z,0.70
2023-12-04T00:20:58.719Z,0.60
2023-12-04T00:23:25.852Z,0.70
2023-12-04T00:25:53.211Z,0.63
2023-12-04T00:28:20.446Z,0.60
2023-12-04T00:30:48.259Z,0.60
2023-12-04T00:33:15.593Z,0.63
2023-12-04T00:36:02.892Z,0.60
2023-12-04T00:38:49.952Z,0.60
2023-12-04T00:41:38.433Z,0.53
2023-12-04T00:44:26.711Z,0.60
2023-12-04T00:47:14.543Z,0.57
2023-12-04T00:50:01.622Z,0.50
2023-12-04T00:52:48.885Z,0.50
2023-12-04T00:55:35.951Z,0.80
2023-12-04T00:58:23.635Z,0.60
2023-12-04T01:01:10.745Z,0.63
2023-12-04T01:03:59.164Z,0.40
2023-12-04T01:06:46.548Z,0.50
2023-12-04T01:09:33.681Z,0.57
2023-12-04T01:12:20.722Z,0.57
2023-12-04T01:15:07.992Z,0.60
2023-12-04T01:17:55.165Z,0.60
2023-12-04T01:20:42.320Z,0.83
2023-12-04T01:23:29.290Z,0.50
2023-12-04T01:26:16.466Z,0.77
2023-12-04T01:29:03.501Z,0.30
2023-12-04T01:31:50.864Z,0.60
2023-12-04T01:34:37.939Z,0.50
2023-12-04T01:37:25.277Z,0.50
2023-12-04T01:40:12.466Z,0.50
2023-12-04T01:42:59.545Z,0.30
2023-12-04T01:45:46.540Z,0.70
2023-12-04T01:48:35.376Z,0.60
2023-12-04T01:51:27.764Z,0.60
2023-12-04T01:54:15.877Z,0.47
2023-12-04T01:57:03.974Z,0.40
2023-12-04T01:59:51.091Z,0.60
2023-12-04T02:02:38.434Z,0.50
2023-12-04T02:05:28.237Z,0.40
2023-12-04T02:08:16.153Z,0.40
2023-12-04T02:11:03.166Z,0.60
2023-12-04T02:13:51.624Z,0.40
2023-12-04T02:16:40.617Z,0.63
2023-12-04T02:19:33.221Z,0.70
2023-12-04T02:22:20.396Z,0.53
2023-12-04T02:25:10.806Z,0.47
2023-12-04T02:28:15.212Z,0.50
2023-12-04T02:31:04.815Z,0.50
2023-12-04T02:33:54.420Z,0.50
2023-12-04T02:36:44.734Z,0.50
2023-12-04T02:39:32.445Z,0.30
2023-12-04T02:42:19.445Z,0.83
2023-12-04T02:45:06.837Z,0.60
2023-12-04T02:47:53.946Z,0.40
2023-12-04T02:50:41.093Z,0.40
2023-12-04T02:53:27.968Z,0.40
2023-12-04T02:56:15.121Z,0.40
2023-12-04T02:59:02.671Z,0.80
2023-12-04T03:01:49.964Z,0.77
2023-12-04T03:04:37.041Z,0.40
2023-12-04T03:07:24.412Z,0.40
2023-12-04T03:10:12.240Z,0.37
2023-12-04T03:12:59.344Z,0.53
2023-12-04T03:15:46.367Z,0.60
2023-12-04T03:18:33.811Z,0.30
2023-12-04T03:21:21.023Z,0.43
2023-12-04T03:24:09.886Z,0.50
2023-12-04T03:26:57.040Z,0.33
2023-12-04T03:29:44.166Z,0.57
2023-12-04T03:32:31.137Z,0.30
2023-12-04T03:35:18.811Z,0.60
2023-12-04T03:38:05.854Z,0.60
2023-12-04T03:40:53.277Z,0.30
2023-12-04T03:43:40.322Z,0.40
2023-12-04T03:46:27.552Z,0.40
2023-12-04T03:49:15.518Z,0.50
2023-12-04T03:52:02.680Z,0.30
2023-12-04T03:54:49.640Z,0.60
2023-12-04T03:57:36.821Z,0.30
2023-12-04T04:00:24.739Z,0.50
2023-12-04T04:03:12.057Z,0.40
2023-12-04T04:05:59.147Z,0.50
2023-12-04T04:08:46.193Z,0.40
2023-12-04T04:11:33.967Z,0.57
2023-12-04T04:14:21.072Z,0.50
2023-12-04T04:17:08.137Z,0.50
2023-12-04T04:19:55.281Z,0.50
2023-12-04T04:22:43.111Z,0.77
2023-12-04T04:25:30.944Z,0.70
2023-12-04T04:28:17.900Z,0.50
2023-12-04T04:31:05.052Z,0.50
2023-12-04T04:33:52.160Z,0.53
2023-12-04T04:36:39.258Z,0.60
2023-12-04T04:39:26.201Z,0.63
2023-12-04T04:42:13.404Z,0.47
2023-12-04T04:45:00.362Z,0.50
2023-12-04T04:47:47.690Z,0.30
2023-12-04T04:50:34.729Z,0.70
2023-12-04T04:53:22.074Z,0.43
2023-12-04T04:56:09.149Z,0.70
2023-12-04T04:58:56.276Z,0.40
2023-12-04T05:01:43.345Z,0.53
2023-12-04T05:04:30.565Z,0.50
2023-12-04T05:07:17.747Z,0.67
2023-12-04T05:10:07.377Z,0.80
2023-12-04T05:12:55.877Z,0.50
2023-12-04T05:15:43.094Z,0.70
2023-12-04T05:18:30.088Z,0.67
2023-12-04T05:21:17.788Z,0.63
2023-12-04T05:24:04.712Z,0.50
2023-12-04T05:26:52.048Z,0.50
2023-12-04T05:29:39.061Z,0.57
2023-12-04T05:32:26.555Z,0.80
2023-12-04T05:35:13.537Z,0.50
2023-12-04T05:38:00.609Z,0.60
2023-12-04T05:40:47.576Z,0.50
2023-12-04T05:43:34.709Z,0.43
2023-12-04T05:46:21.673Z,0.40
2023-12-04T05:49:09.396Z,0.50
2023-12-04T05:51:56.445Z,0.40
2023-12-04T05:54:43.619Z,0.80
2023-12-04T05:57:30.625Z,0.53
2023-12-04T06:00:18.021Z,0.50
2023-12-04T06:03:05.695Z,0.73
2023-12-04T06:05:56.088Z,0.40
2023-12-04T06:08:44.368Z,0.50
2023-12-04T06:11:31.570Z,0.70
2023-12-04T06:14:18.579Z,0.60
2023-12-04T06:17:05.683Z,0.60
2023-12-04T06:19:52.601Z,0.60
2023-12-04T06:22:40.082Z,0.53
2023-12-04T06:25:27.779Z,0.40
2023-12-04T06:28:15.083Z,0.53
2023-12-04T06:31:09.027Z,0.70
2023-12-04T06:33:56.502Z,0.50
2023-12-04T06:36:45.708Z,0.70
2023-12-04T06:39:33.943Z,0.63
2023-12-04T06:42:21.413Z,0.47
2023-12-04T06:45:08.836Z,0.50
2023-12-04T06:47:56.209Z,0.50
2023-12-04T06:50:43.312Z,0.60
2023-12-04T06:53:30.358Z,0.50
2023-12-04T06:56:20.747Z,0.83
2023-12-04T06:59:08.016Z,0.40
2023-12-04T07:01:55.164Z,0.57
2023-12-04T07:04:42.380Z,0.60
2023-12-04T07:07:29.405Z,0.60
2023-12-04T07:10:17.013Z,0.67
2023-12-04T07:13:05.336Z,0.50
2023-12-04T07:15:52.418Z,0.60
2023-12-04T07:18:39.731Z,0.60
2023-12-04T07:21:26.904Z,0.40
2023-12-04T07:24:14.048Z,0.80
2023-12-04T07:27:00.938Z,0.50
2023-12-04T07:29:48.092Z,0.70
2023-12-04T07:32:35.079Z,0.73
2023-12-04T07:35:22.325Z,0.63
2023-12-04T07:38:09.343Z,0.57
2023-12-04T07:40:56.377Z,0.60
2023-12-04T07:43:43.330Z,0.70
2023-12-04T07:46:31.370Z,0.50
2023-12-04T07:49:18.383Z,0.50
2023-12-04T07:52:05.506Z,0.70
2023-12-04T07:54:52.983Z,0.50
2023-12-04T07:57:40.484Z,0.73
2023-12-04T08:00:28.145Z,0.50
2023-12-04T08:03:15.262Z,0.70
2023-12-04T08:06:02.244Z,0.70
2023-12-04T08:08:49.456Z,1.00
2023-12-04T08:11:36.515Z,0.67
2023-12-04T08:14:24.400Z,0.70
2023-12-04T08:17:11.394Z,0.63
2023-12-04T08:19:58.688Z,0.70
2023-12-04T08:22:45.742Z,0.77
2023-12-04T08:25:32.823Z,0.63
2023-12-04T08:28:20.084Z,0.60
2023-12-04T08:31:07.244Z,0.60
2023-12-04T08:33:54.405Z,0.90
2023-12-04T08:36:45.537Z,0.60
2023-12-04T08:39:34.409Z,0.70
2023-12-04T08:42:23.956Z,0.47
2023-12-04T08:45:11.221Z,0.63
2023-12-04T08:47:58.545Z,0.87
2023-12-04T08:50:45.623Z,0.60
2023-12-04T08:53:32.773Z,0.57
2023-12-04T08:56:25.553Z,0.90
2023-12-04T08:59:16.307Z,0.60
2023-12-04T09:02:04.498Z,0.80
2023-12-04T09:04:52.769Z,0.77
2023-12-04T09:10:40.971Z,1.00
2023-12-04T09:13:37.309Z,0.80
2023-12-04T09:16:24.872Z,0.77
2023-12-04T09:19:11.983Z,0.70
2023-12-04T09:22:08.316Z,1.30
2023-12-04T09:24:59.948Z,0.90
2023-12-04T09:27:46.936Z,0.73
2023-12-04T09:30:34.209Z,0.80
2023-12-04T09:33:21.773Z,0.80
2023-12-04T09:36:08.847Z,0.77
2023-12-04T09:38:56.206Z,1.07
2023-12-04T09:41:43.623Z,0.70
2023-12-04T09:44:30.930Z,0.90
2023-12-04T09:47:20.589Z,1.20
2023-12-04T09:50:08.453Z,0.97
2023-12-04T09:52:55.994Z,0.80
2023-12-04T09:55:43.131Z,0.77
2023-12-04T09:58:34.206Z,0.90
2023-12-04T10:01:24.784Z,0.70
2023-12-04T10:04:12.235Z,1.20
2023-12-04T10:06:59.352Z,0.70
2023-12-04T10:09:46.440Z,0.77
2023-12-04T10:12:33.557Z,0.90
2023-12-04T10:15:32.482Z,0.93
2023-12-04T10:18:19.703Z,1.00
2023-12-04T10:21:19.728Z,1.00
2023-12-04T10:24:09.547Z,1.03
2023-12-04T10:26:56.590Z,0.90
2023-12-04T10:29:44.017Z,0.90
2023-12-04T10:32:31.388Z,0.80
2023-12-04T10:35:18.621Z,0.73
2023-12-04T10:38:05.889Z,0.73
2023-12-04T10:40:54.998Z,0.90
2023-12-04T10:43:43.659Z,1.03
2023-12-04T10:46:30.935Z,1.10
2023-12-04T10:49:18.324Z,0.73
2023-12-04T10:52:05.519Z,1.20
2023-12-04T10:54:52.727Z,0.67
2023-12-04T10:57:58.754Z,1.10
2023-12-04T11:00:47.313Z,0.80
2023-12-04T11:03:55.714Z,0.87
2023-12-04T11:06:43.348Z,0.60
2023-12-04T11:09:31.670Z,0.70
2023-12-04T11:12:23.426Z,0.90
2023-12-04T11:15:17.517Z,0.63
2023-12-04T11:18:10.452Z,0.70
2023-12-04T11:21:08.142Z,1.10
2023-12-04T11:23:56.073Z,0.80
2023-12-04T11:26:44.284Z,0.80
2023-12-04T11:29:33.615Z,0.60
2023-12-04T11:32:20.790Z,0.60
2023-12-04T11:35:16.962Z,0.70
2023-12-04T11:38:04.945Z,0.87
2023-12-04T11:40:52.343Z,0.83
2023-12-04T11:43:45.454Z,0.80
2023-12-04T11:46:32.524Z,0.80
2023-12-04T11:49:55.177Z,0.70
2023-12-04T11:52:54.351Z,0.63
2023-12-04T11:55:43.884Z,0.90
2023-12-04T11:58:32.443Z,0.80
2023-12-04T12:01:19.773Z,0.80
2023-12-04T12:04:12.202Z,1.00
2023-12-04T12:06:59.918Z,0.83
2023-12-04T12:09:50.173Z,1.10
2023-12-04T12:12:38.814Z,1.00
2023-12-04T12:15:29.162Z,0.77
2023-12-04T12:18:16.875Z,0.83
2023-12-04T12:21:04.037Z,1.10
2023-12-04T12:23:51.264Z,1.13
2023-12-04T12:26:38.444Z,1.10
2023-12-04T12:29:25.807Z,1.07
2023-12-04T12:32:12.908Z,1.17
2023-12-04T12:35:00.010Z,0.90
2023-12-04T12:37:47.204Z,1.20
2023-12-04T12:40:35.431Z,1.00
2023-12-04T12:43:27.684Z,0.67
2023-12-04T12:46:14.958Z,0.80
2023-12-04T12:49:03.757Z,0.80
2023-12-04T12:51:50.849Z,0.70
2023-12-04T12:54:37.838Z,0.73
2023-12-04T12:57:25.084Z,1.00
2023-12-04T13:00:12.196Z,0.90
2023-12-04T13:02:59.788Z,1.20
2023-12-04T13:05:46.945Z,1.00
2023-12-04T13:08:34.320Z,1.30
2023-12-04T13:11:21.364Z,0.90
2023-12-04T13:14:08.376Z,0.80
2023-12-04T13:16:55.359Z,0.90
2023-12-04T13:19:45.863Z,0.67
2023-12-04T13:22:33.551Z,1.07
2023-12-04T13:25:20.728Z,0.97
2023-12-04T13:28:11.988Z,1.10
2023-12-04T13:30:59.474Z,1.07
2023-12-04T13:33:46.686Z,0.97
2023-12-04T13:36:33.872Z,0.90
2023-12-04T13:39:20.897Z,0.93
2023-12-04T13:42:06.452Z,0.90
2023-12-04T13:44:53.469Z,1.03
2023-12-04T13:47:40.973Z,1.00
2023-12-04T13:50:28.816Z,0.70
2023-12-04T13:53:16.217Z,1.07
2023-12-04T13:56:09.162Z,1.10
2023-12-04T13:58:59.463Z,1.20
2023-12-04T14:01:50.566Z,1.00
2023-12-04T14:04:38.482Z,1.00
2023-12-04T14:07:25.996Z,0.97
2023-12-04T14:10:13.382Z,1.00
2023-12-04T14:13:01.581Z,1.00
2023-12-04T14:15:48.756Z,1.10
2023-12-04T14:18:36.008Z,1.10
2023-12-04T14:21:23.312Z,1.10
2023-12-04T14:24:10.409Z,1.07
2023-12-04T14:26:57.535Z,1.13
2023-12-04T14:29:44.631Z,1.20
2023-12-04T14:32:38.036Z,1.00
2023-12-04T14:35:31.082Z,1.03
2023-12-04T14:38:18.222Z,1.10
2023-12-04T14:41:05.370Z,0.80
2023-12-04T14:43:52.400Z,1.30
2023-12-04T14:46:39.782Z,0.80
2023-12-04T14:49:27.048Z,1.10
2023-12-04T14:52:14.212Z,0.97
2023-12-04T14:55:13.357Z,0.80
2023-12-04T14:57:40.609Z,0.93
2023-12-04T15:00:30.266Z,0.90
2023-12-04T15:03:20.605Z,0.97
2023-12-04T15:06:06.627Z,0.90
2023-12-04T15:08:52.876Z,0.87
2023-12-04T15:11:38.466Z,0.93
2023-12-04T15:14:31.541Z,1.10
2023-12-04T15:17:18.591Z,0.83
2023-12-04T15:20:00.779Z,1.03
2023-12-04T15:22:48.060Z,0.80
2023-12-04T15:25:36.138Z,0.80
2023-12-04T15:28:27.534Z,0.97
2023-12-04T15:31:19.974Z,1.20
2023-12-04T15:34:08.054Z,1.00
2023-12-04T15:36:55.174Z,1.00
2023-12-04T15:39:42.279Z,1.30
2023-12-04T15:42:29.424Z,1.20
2023-12-04T15:45:16.585Z,1.10
2023-12-04T15:48:04.258Z,1.40
2023-12-04T15:50:51.281Z,1.00
2023-12-04T15:53:38.521Z,0.80
2023-12-04T15:56:26.984Z,0.63
2023-12-04T15:59:14.086Z,1.20
2023-12-04T16:02:01.241Z,0.80
2023-12-04T16:04:48.290Z,0.90
2023-12-04T16:07:35.850Z,1.20
2023-12-04T16:10:23.087Z,0.90
2023-12-04T16:13:10.285Z,1.00
2023-12-04T16:15:57.410Z,0.83
2023-12-04T16:18:44.825Z,1.13
2023-12-04T16:21:31.788Z,0.80
2023-12-04T16:24:19.134Z,0.90
2023-12-04T16:27:06.059Z,1.17
2023-12-04T16:29:53.299Z,0.80
2023-12-04T16:32:40.397Z,0.70
2023-12-04T16:35:27.827Z,0.93
2023-12-04T16:38:14.934Z,1.00
2023-12-04T16:41:02.867Z,1.10
2023-12-04T16:43:50.255Z,0.97
2023-12-04T16:46:37.260Z,1.10
2023-12-04T16:49:25.017Z,1.53
2023-12-04T16:52:12.747Z,1.90
2023-12-04T16:54:59.925Z,1.57
2023-12-04T16:57:47.112Z,1.40
2023-12-04T17:00:34.843Z,1.10
2023-12-04T17:03:22.278Z,1.50
2023-12-04T17:06:09.578Z,1.03
2023-12-04T17:08:56.951Z,1.10
2023-12-04T17:11:44.129Z,1.23
2023-12-04T17:14:31.271Z,1.23
2023-12-04T17:17:18.416Z,1.10
2023-12-04T17:20:05.399Z,0.57
2023-12-04T17:22:52.603Z,0.77
2023-12-04T17:25:39.762Z,0.80
2023-12-04T17:28:26.951Z,0.87
2023-12-04T17:31:14.129Z,1.10
2023-12-04T17:34:01.301Z,0.70
2023-12-04T17:36:48.348Z,0.63
2023-12-04T17:39:35.555Z,0.90
2023-12-04T17:42:22.597Z,0.70
2023-12-04T17:45:09.988Z,0.80
2023-12-04T17:47:57.036Z,0.93
2023-12-04T17:50:44.457Z,1.10
2023-12-04T17:53:31.406Z,0.87
2023-12-04T17:56:18.506Z,1.17
2023-12-04T17:59:05.428Z,0.97
2023-12-04T18:01:52.961Z,0.80
2023-12-04T18:04:40.034Z,0.83
2023-12-04T18:07:27.270Z,1.00
2023-12-04T18:10:14.241Z,1.00
2023-12-04T18:13:01.580Z,0.83
2023-12-04T18:15:48.654Z,1.00
2023-12-04T18:18:35.849Z,1.00
2023-12-04T18:21:23.036Z,0.70
2023-12-04T18:24:10.234Z,0.60
2023-12-04T18:26:57.779Z,0.90
2023-12-04T18:29:45.400Z,0.80
2023-12-04T18:32:33.046Z,0.70
2023-12-04T18:35:20.755Z,0.60
2023-12-04T18:38:19.280Z,0.63
2023-12-04T18:41:06.608Z,0.47
2023-12-04T18:43:53.903Z,0.43
2023-12-04T18:46:43.866Z,0.40
2023-12-04T18:49:33.049Z,0.40
2023-12-04T18:52:20.439Z,0.53
2023-12-04T18:55:07.304Z,0.40
2023-12-04T18:57:54.328Z,0.47
2023-12-04T19:00:26.198Z,0.40
2023-12-04T19:02:53.991Z,0.40
2023-12-04T19:05:22.201Z,0.40
2023-12-04T19:08:09.424Z,0.50
2023-12-04T19:10:56.683Z,0.63
2023-12-04T19:13:44.006Z,0.60
2023-12-04T19:16:31.175Z,0.80
2023-12-04T19:19:18.202Z,0.90
2023-12-04T19:22:05.461Z,0.80
2023-12-04T19:24:52.425Z,0.77
2023-12-04T19:27:39.549Z,0.63
2023-12-04T19:30:27.181Z,0.63
2023-12-04T19:33:25.852Z,0.63
2023-12-04T19:36:16.021Z,0.40
2023-12-04T19:39:03.219Z,0.87
2023-12-04T19:41:51.406Z,0.60
2023-12-04T19:44:38.404Z,0.40
2023-12-04T19:47:25.540Z,0.50
2023-12-04T19:50:12.837Z,0.50
2023-12-04T19:53:00.202Z,0.70
2023-12-04T19:55:47.226Z,0.70
2023-12-04T19:58:34.170Z,0.40
